Millers, Virginia
Current Conditions -  °F | °C
As of 10:54 PM on Sunday 25 Jan 2015 (Local Time) from KRIC Reporting Station
Overcast Overcast  
Wind Chill: 37°   Ceiling: 15000
Heat Index: 42°   Visibility: 10mi
Dew Point: 36°   Wind: 8mph
Humidity: 79%   Direction: 130°SE
Pressure: 29.84"   Gusts: NA
Location:  37.4458°N, 77.3237°W
Report Text: KRIC 260354Z 13007KT 10SM OVC150 06/02 A2984 RMK AO2 SLP111 T00560022
Loading
Personal Weather Stations






























Interactive Weather Map New forecast layout! Learn more

10-Day Weather Forecast

Advertisements
Track Severe Weather on mobile